Time;durP1;ratioP1;P1;durP2;ratioP2;P2;SDS_P1;SDS_P2;PMS_P1;PMS_P2;Temp;Humidity;BMP_temperature;BMP_pressure;BME280_temperature;BME280_humidity;BME280_pressure;Samples;Min_cycle;Max_cycle;Signal;HPM_P1;HPM_P2
2021/04/16 00:02:03;;;;;;;0.90;0.40;;;;;;;;;;5123924;27;20015;-50
2021/04/16 00:04:28;;;;;;;1.70;0.50;;;;;;;;;;5117446;28;20027;-51
2021/04/16 00:06:53;;;;;;;1.80;0.90;;;;;;;;;;5114915;27;20020;-51
2021/04/16 00:09:18;;;;;;;0.90;0.53;;;;;;;;;;5117773;28;20031;-51
2021/04/16 00:11:44;;;;;;;0.83;0.60;;;;;;;;;;5120977;27;20050;-50
2021/04/16 00:14:10;;;;;;;2.23;0.53;;;;;;;;;;5132563;28;20057;-50
2021/04/16 00:16:36;;;;;;;1.17;0.40;;;;;;;;;;5130698;27;20023;-49
2021/04/16 00:19:01;;;;;;;0.97;0.53;;;;;;;;;;5119245;28;20115;-52
2021/04/16 00:21:27;;;;;;;2.27;0.57;;;;;;;;;;5119356;28;20064;-51
2021/04/16 00:23:52;;;;;;;1.07;0.87;;;;;;;;;;5130783;27;20068;-47
2021/04/16 00:26:17;;;;;;;0.90;0.80;;;;;;;;;;5124495;28;20030;-50
2021/04/16 00:28:43;;;;;;;1.77;0.60;;;;;;;;;;5132573;27;20386;-51
2021/04/16 00:31:16;;;;;;;1.77;0.57;;;;;;;;;;5127554;27;20038;-52
2021/04/16 00:33:41;;;;;;;0.90;0.70;;;;;;;;;;5119533;28;20051;-48
2021/04/16 00:36:07;;;;;;;1.93;0.70;;;;;;;;;;5129303;27;20046;-49
2021/04/16 00:38:33;;;;;;;1.03;0.80;;;;;;;;;;5132605;27;20034;-50
2021/04/16 00:40:59;;;;;;;1.00;0.60;;;;;;;;;;5120460;27;20159;-46
2021/04/16 00:43:25;;;;;;;0.60;0.50;;;;;;;;;;5131927;27;20050;-52
2021/04/16 00:45:54;;;;;;;2.23;0.97;;;;;;;;;;5133148;27;20096;-47
2021/04/16 00:48:22;;;;;;;1.10;0.80;;;;;;;;;;5123443;27;20033;-50
2021/04/16 00:50:49;;;;;;;2.53;0.83;;;;;;;;;;5123483;27;20019;-51
2021/04/16 00:53:16;;;;;;;1.97;0.80;;;;;;;;;;5113792;28;20059;-47
2021/04/16 00:55:41;;;;;;;1.67;0.80;;;;;;;;;;5133429;27;20093;-51
2021/04/16 00:58:08;;;;;;;1.27;0.77;;;;;;;;;;5129541;27;20023;-52
2021/04/16 01:00:33;;;;;;;1.17;0.70;;;;;;;;;;5136121;27;20049;-52
2021/04/16 01:02:59;;;;;;;0.90;0.70;;;;;;;;;;5133001;27;20466;-47
2021/04/16 01:05:24;;;;;;;0.93;0.70;;;;;;;;;;5136973;27;20022;-49
2021/04/16 01:07:51;;;;;;;2.13;1.00;;;;;;;;;;5126347;27;20492;-48
2021/04/16 01:10:16;;;;;;;1.07;0.80;;;;;;;;;;5124649;27;20024;-51
2021/04/16 01:12:41;;;;;;;1.30;0.60;;;;;;;;;;5115577;27;20015;-53
2021/04/16 01:15:31;;;;;;;0.70;0.40;;;;;;;;;;5119250;27;20509;-49
2021/04/16 01:17:58;;;;;;;0.63;0.57;;;;;;;;;;5122362;27;20110;-49
2021/04/16 01:20:32;;;;;;;2.10;0.67;;;;;;;;;;5135918;27;20029;-53
2021/04/16 01:23:01;;;;;;;1.97;0.70;;;;;;;;;;5128453;27;20454;-53
2021/04/16 01:25:27;;;;;;;0.80;0.70;;;;;;;;;;5124870;27;20027;-50
2021/04/16 01:27:52;;;;;;;1.63;1.00;;;;;;;;;;5116133;27;20057;-49
2021/04/16 01:30:23;;;;;;;0.87;0.77;;;;;;;;;;5135581;27;20022;-47
2021/04/16 01:32:48;;;;;;;1.13;1.00;;;;;;;;;;5129570;27;20019;-48
2021/04/16 01:35:18;;;;;;;1.20;0.97;;;;;;;;;;5135530;27;20410;-53
2021/04/16 01:37:43;;;;;;;2.30;0.87;;;;;;;;;;5136394;27;20023;-52
2021/04/16 01:40:13;;;;;;;2.87;1.20;;;;;;;;;;5120149;27;20140;-52
2021/04/16 01:42:38;;;;;;;1.67;1.10;;;;;;;;;;5130875;27;20030;-48
2021/04/16 01:45:05;;;;;;;2.67;0.87;;;;;;;;;;5119416;27;20019;-50
2021/04/16 01:47:30;;;;;;;1.70;0.90;;;;;;;;;;5115322;28;20015;-50
2021/04/16 01:49:55;;;;;;;1.23;0.90;;;;;;;;;;5125974;27;20094;-49
2021/04/16 01:52:25;;;;;;;3.83;1.73;;;;;;;;;;5119281;27;20528;-49
2021/04/16 01:54:51;;;;;;;1.80;1.00;;;;;;;;;;5124632;27;20019;-52
2021/04/16 01:57:21;;;;;;;1.87;1.10;;;;;;;;;;5132211;27;20130;-51
2021/04/16 01:59:47;;;;;;;0.90;0.77;;;;;;;;;;5122377;27;20030;-49
2021/04/16 02:02:14;;;;;;;0.90;0.50;;;;;;;;;;5124717;27;20053;-51
2021/04/16 02:04:39;;;;;;;2.47;1.47;;;;;;;;;;5115223;28;20107;-52
2021/04/16 02:07:05;;;;;;;1.50;1.40;;;;;;;;;;5134254;27;20106;-46
2021/04/16 02:09:32;;;;;;;2.80;1.77;;;;;;;;;;5134301;27;20106;-47
2021/04/16 02:11:58;;;;;;;2.93;1.50;;;;;;;;;;5129719;27;20032;-50
2021/04/16 02:14:24;;;;;;;0.77;0.60;;;;;;;;;;5135076;27;20492;-52
2021/04/16 02:16:51;;;;;;;1.27;1.10;;;;;;;;;;5134169;27;20030;-49
2021/04/16 02:19:16;;;;;;;1.00;0.70;;;;;;;;;;5125021;27;20552;-46
2021/04/16 02:21:41;;;;;;;2.07;1.23;;;;;;;;;;5131696;27;20103;-49
2021/04/16 02:24:07;;;;;;;0.70;0.70;;;;;;;;;;5132192;27;20068;-48
2021/04/16 02:26:32;;;;;;;1.90;1.43;;;;;;;;;;5116653;27;20387;-46
2021/04/16 02:28:58;;;;;;;1.50;0.90;;;;;;;;;;5126368;27;20028;-53
2021/04/16 02:31:23;;;;;;;1.07;0.93;;;;;;;;;;5129996;27;20042;-45
2021/04/16 02:33:48;;;;;;;2.37;1.30;;;;;;;;;;5131887;27;20023;-49
2021/04/16 02:36:14;;;;;;;2.47;1.70;;;;;;;;;;5133756;27;20026;-48
2021/04/16 02:38:39;;;;;;;1.40;0.80;;;;;;;;;;5127420;27;20011;-50
2021/04/16 02:41:04;;;;;;;2.47;1.63;;;;;;;;;;5131775;27;20023;-53
2021/04/16 02:43:30;;;;;;;1.83;1.00;;;;;;;;;;5131053;27;20019;-51
2021/04/16 02:45:55;;;;;;;1.50;1.40;;;;;;;;;;5135253;27;20029;-49
2021/04/16 02:48:20;;;;;;;0.97;0.80;;;;;;;;;;5131923;27;20068;-53
2021/04/16 02:50:45;;;;;;;1.67;1.13;;;;;;;;;;5130752;27;20023;-50
2021/04/16 02:53:10;;;;;;;1.13;1.00;;;;;;;;;;5128631;27;20067;-47
2021/04/16 02:55:36;;;;;;;0.80;0.60;;;;;;;;;;5117918;27;20050;-50
2021/04/16 02:58:01;;;;;;;0.60;0.37;;;;;;;;;;5122231;27;20414;-49
2021/04/16 03:00:28;;;;;;;3.10;2.13;;;;;;;;;;5128786;27;20508;-47
2021/04/16 03:02:55;;;;;;;1.07;0.87;;;;;;;;;;5124011;27;20474;-48
2021/04/16 03:05:20;;;;;;;1.80;1.03;;;;;;;;;;5114240;28;20102;-51
2021/04/16 03:07:46;;;;;;;1.60;1.40;;;;;;;;;;5121723;27;20526;-45
2021/04/16 03:10:12;;;;;;;1.33;0.93;;;;;;;;;;5123968;27;20387;-51
2021/04/16 03:12:37;;;;;;;1.63;1.20;;;;;;;;;;5114813;27;20343;-47
2021/04/16 03:15:04;;;;;;;0.47;0.43;;;;;;;;;;5132922;27;20015;-50
2021/04/16 03:17:29;;;;;;;0.57;0.57;;;;;;;;;;5128717;27;20099;-49
2021/04/16 03:19:54;;;;;;;0.80;0.60;;;;;;;;;;5128356;27;20455;-49
2021/04/16 03:22:20;;;;;;;1.00;0.73;;;;;;;;;;5127081;27;20020;-45
2021/04/16 03:24:45;;;;;;;0.77;0.50;;;;;;;;;;5133254;27;20030;-49
2021/04/16 03:27:10;;;;;;;1.57;1.43;;;;;;;;;;5133778;27;20067;-47
2021/04/16 03:29:36;;;;;;;0.30;0.30;;;;;;;;;;5129284;27;20106;-50
2021/04/16 03:32:01;;;;;;;1.20;1.10;;;;;;;;;;5130877;27;20012;-47
2021/04/16 03:34:26;;;;;;;2.00;1.23;;;;;;;;;;5132810;27;20019;-49
2021/04/16 03:36:52;;;;;;;1.07;0.50;;;;;;;;;;5132791;27;20382;-51
2021/04/16 03:39:17;;;;;;;1.47;1.30;;;;;;;;;;5125281;27;20651;-51
2021/04/16 03:41:42;;;;;;;2.27;1.43;;;;;;;;;;5121209;27;20440;-51
2021/04/16 03:44:07;;;;;;;2.20;1.97;;;;;;;;;;5132620;27;20447;-50
2021/04/16 03:46:33;;;;;;;2.17;1.90;;;;;;;;;;5133552;27;20068;-49
2021/04/16 03:48:58;;;;;;;2.43;2.07;;;;;;;;;;5132493;27;20031;-47
2021/04/16 03:51:23;;;;;;;3.83;2.17;;;;;;;;;;5110970;27;20051;-52
2021/04/16 03:53:48;;;;;;;2.43;1.73;;;;;;;;;;5113185;28;20055;-51
2021/04/16 03:56:14;;;;;;;2.37;2.10;;;;;;;;;;5113068;28;20043;-51
2021/04/16 03:58:41;;;;;;;1.63;1.40;;;;;;;;;;5125254;27;20367;-51
2021/04/16 04:01:07;;;;;;;3.50;2.27;;;;;;;;;;5124922;27;20102;-49
2021/04/16 04:03:32;;;;;;;1.90;1.50;;;;;;;;;;5127561;27;20454;-49
2021/04/16 04:05:58;;;;;;;2.50;2.30;;;;;;;;;;5133676;27;20390;-50
2021/04/16 04:08:24;;;;;;;2.70;2.50;;;;;;;;;;5132688;27;20023;-49
2021/04/16 04:10:49;;;;;;;1.47;1.27;;;;;;;;;;5131581;27;20027;-45
2021/04/16 04:13:15;;;;;;;3.67;3.00;;;;;;;;;;5127822;28;20122;-53
2021/04/16 04:15:40;;;;;;;2.80;2.50;;;;;;;;;;5130860;27;20027;-50
2021/04/16 04:18:06;;;;;;;2.23;2.00;;;;;;;;;;5128412;27;20356;-48
2021/04/16 04:20:32;;;;;;;3.07;1.70;;;;;;;;;;5132992;27;20076;-52
2021/04/16 04:22:58;;;;;;;3.77;3.03;;;;;;;;;;5129910;27;20144;-47
2021/04/16 04:25:25;;;;;;;2.47;1.90;;;;;;;;;;5136841;27;20062;-54
2021/04/16 04:27:51;;;;;;;1.67;1.03;;;;;;;;;;5120054;27;20024;-52
2021/04/16 04:30:17;;;;;;;3.17;2.60;;;;;;;;;;5131791;27;20480;-49
2021/04/16 04:32:42;;;;;;;4.07;3.33;;;;;;;;;;5116619;27;20027;-50
2021/04/16 04:35:07;;;;;;;3.97;3.57;;;;;;;;;;5136290;27;20496;-49
2021/04/16 04:37:33;;;;;;;3.83;3.30;;;;;;;;;;5136418;27;20019;-50
2021/04/16 04:39:58;;;;;;;3.80;3.40;;;;;;;;;;5129040;27;20027;-51
2021/04/16 04:42:23;;;;;;;2.60;2.37;;;;;;;;;;5132442;27;20027;-51
2021/04/16 04:44:48;;;;;;;4.97;3.87;;;;;;;;;;5136799;27;20015;-49
2021/04/16 04:47:14;;;;;;;5.47;4.40;;;;;;;;;;5137123;27;20019;-50
2021/04/16 04:49:39;;;;;;;6.07;4.40;;;;;;;;;;5134464;27;20019;-52
2021/04/16 04:52:12;;;;;;;3.37;2.30;;;;;;;;;;5128087;27;20141;-51
2021/04/16 04:54:38;;;;;;;8.87;5.73;;;;;;;;;;5136298;27;20019;-52
2021/04/16 04:57:04;;;;;;;7.50;4.60;;;;;;;;;;5126804;27;20370;-49
2021/04/16 04:59:29;;;;;;;5.63;3.53;;;;;;;;;;5125407;27;20019;-49
2021/04/16 05:01:54;;;;;;;4.67;3.70;;;;;;;;;;5116707;27;20020;-49
2021/04/16 05:04:19;;;;;;;4.93;3.90;;;;;;;;;;5130330;27;20076;-50
2021/04/16 05:06:45;;;;;;;8.77;5.70;;;;;;;;;;5119246;27;20426;-52
2021/04/16 05:09:10;;;;;;;14.53;8.97;;;;;;;;;;5124934;27;20113;-52
2021/04/16 05:11:35;;;;;;;10.17;6.83;;;;;;;;;;5120838;27;20626;-51
2021/04/16 05:14:00;;;;;;;7.10;5.50;;;;;;;;;;5123482;27;20019;-51
2021/04/16 05:16:26;;;;;;;5.77;4.73;;;;;;;;;;5115930;28;20043;-51
2021/04/16 05:18:53;;;;;;;8.23;6.30;;;;;;;;;;5126546;27;20102;-51
2021/04/16 05:21:18;;;;;;;8.10;5.70;;;;;;;;;;5127914;27;20031;-52
2021/04/16 05:23:44;;;;;;;8.40;6.10;;;;;;;;;;5132827;27;20042;-52
2021/04/16 05:26:09;;;;;;;6.37;5.03;;;;;;;;;;5127883;27;20038;-52
2021/04/16 05:28:34;;;;;;;7.20;6.00;;;;;;;;;;5132552;27;20114;-52
2021/04/16 05:30:59;;;;;;;11.80;8.00;;;;;;;;;;5132584;27;20038;-51
2021/04/16 05:33:24;;;;;;;8.27;6.13;;;;;;;;;;5124301;27;20132;-51
2021/04/16 05:35:50;;;;;;;8.27;7.13;;;;;;;;;;5127486;27;20026;-52
2021/04/16 05:38:15;;;;;;;7.13;5.27;;;;;;;;;;5125668;27;20466;-52
2021/04/16 05:40:40;;;;;;;10.20;5.93;;;;;;;;;;5123032;27;20583;-50
2021/04/16 05:43:05;;;;;;;9.40;6.93;;;;;;;;;;5124226;27;20102;-51
2021/04/16 05:45:31;;;;;;;8.77;6.30;;;;;;;;;;5125655;27;20015;-53
2021/04/16 05:47:56;;;;;;;10.83;6.43;;;;;;;;;;5124172;27;20027;-49
2021/04/16 05:50:21;;;;;;;8.37;5.70;;;;;;;;;;5124730;27;20016;-53
2021/04/16 05:52:46;;;;;;;5.97;5.17;;;;;;;;;;5121773;27;20424;-52
2021/04/16 05:55:12;;;;;;;5.27;4.27;;;;;;;;;;5123755;27;20374;-50
2021/04/16 05:57:37;;;;;;;7.07;5.00;;;;;;;;;;5124493;27;20385;-51
2021/04/16 06:00:04;;;;;;;7.53;4.97;;;;;;;;;;5124384;27;20011;-50
2021/04/16 06:02:33;;;;;;;7.20;5.17;;;;;;;;;;5119150;27;20019;-53
2021/04/16 06:04:59;;;;;;;6.40;4.67;;;;;;;;;;5124092;27;20661;-51
2021/04/16 06:07:25;;;;;;;5.73;4.03;;;;;;;;;;5133494;27;20019;-52
2021/04/16 06:09:51;;;;;;;5.20;4.13;;;;;;;;;;5127458;27;20060;-52
2021/04/16 06:12:17;;;;;;;5.57;3.93;;;;;;;;;;5130207;27;20033;-51
2021/04/16 06:14:43;;;;;;;3.93;2.87;;;;;;;;;;5130436;27;20110;-51
2021/04/16 06:17:09;;;;;;;3.03;2.77;;;;;;;;;;5118084;27;20031;-54
2021/04/16 06:19:34;;;;;;;3.83;3.23;;;;;;;;;;5127148;27;20007;-53
2021/04/16 06:21:59;;;;;;;3.77;3.13;;;;;;;;;;5119532;27;20064;-53
2021/04/16 06:24:24;;;;;;;5.17;2.83;;;;;;;;;;5133930;27;20066;-51
2021/04/16 06:26:50;;;;;;;4.43;2.93;;;;;;;;;;5118886;27;20037;-50
2021/04/16 06:29:15;;;;;;;3.00;2.57;;;;;;;;;;5128633;27;20027;-52
2021/04/16 06:31:40;;;;;;;3.13;2.63;;;;;;;;;;5120450;27;20019;-49
2021/04/16 06:34:05;;;;;;;4.73;2.83;;;;;;;;;;5133902;27;20019;-53
2021/04/16 06:36:32;;;;;;;2.77;2.40;;;;;;;;;;5128869;27;20019;-49
2021/04/16 06:38:57;;;;;;;3.50;2.37;;;;;;;;;;5134600;27;20535;-53
2021/04/16 06:41:30;;;;;;;3.63;2.43;;;;;;;;;;5126395;27;20023;-54
2021/04/16 06:43:58;;;;;;;2.27;2.07;;;;;;;;;;5130737;27;20374;-47
2021/04/16 06:46:35;;;;;;;2.83;2.40;;;;;;;;;;5134053;27;20098;-48
2021/04/16 06:49:01;;;;;;;4.23;2.53;;;;;;;;;;5131876;27;20129;-54
2021/04/16 06:51:29;;;;;;;4.67;2.43;;;;;;;;;;5125398;27;20522;-53
2021/04/16 06:54:00;;;;;;;2.83;1.90;;;;;;;;;;5133867;27;20071;-51
2021/04/16 06:56:30;;;;;;;2.63;2.00;;;;;;;;;;5129202;27;20042;-52
2021/04/16 06:59:16;;;;;;;2.10;1.40;;;;;;;;;;5126257;27;20102;-52
2021/04/16 07:01:41;;;;;;;;;;;;;;;;;;5115651;27;20058;-50
2021/04/16 07:04:06;;;;;;;2.33;1.50;;;;;;;;;;5127674;27;19950;-52
2021/04/16 07:06:32;;;;;;;1.60;1.30;;;;;;;;;;5133313;27;20022;-53
2021/04/16 07:09:00;;;;;;;2.80;1.80;;;;;;;;;;5130464;27;20028;-51
2021/04/16 07:11:29;;;;;;;3.93;2.20;;;;;;;;;;5125605;27;20008;-50
2021/04/16 07:13:56;;;;;;;3.57;1.57;;;;;;;;;;5132610;27;20470;-48
2021/04/16 07:16:22;;;;;;;2.90;1.93;;;;;;;;;;5126576;27;20096;-48
2021/04/16 07:18:49;;;;;;;3.30;1.93;;;;;;;;;;5132557;27;20137;-54
2021/04/16 07:21:16;;;;;;;2.30;2.07;;;;;;;;;;5118513;27;20019;-52
2021/04/16 07:23:52;;;;;;;2.97;1.93;;;;;;;;;;5133007;27;20023;-51
2021/04/16 07:26:30;;;;;;;2.67;1.77;;;;;;;;;;5132995;27;20048;-50
2021/04/16 07:28:57;;;;;;;2.37;1.37;;;;;;;;;;5133036;27;20045;-54
2021/04/16 07:31:50;;;;;;;2.47;1.80;;;;;;;;;;5130173;27;20594;-54
2021/04/16 07:34:27;;;;;;;2.47;1.80;;;;;;;;;;5113154;28;20047;-51
2021/04/16 07:36:53;;;;;;;2.67;1.57;;;;;;;;;;5113048;28;20383;-51
2021/04/16 07:39:27;;;;;;;2.77;1.90;;;;;;;;;;5120012;27;20019;-49
2021/04/16 07:41:55;;;;;;;2.83;2.57;;;;;;;;;;5129080;27;20034;-54
2021/04/16 07:44:34;;;;;;;2.57;1.73;;;;;;;;;;5124467;27;20052;-53
2021/04/16 07:47:01;;;;;;;3.03;2.30;;;;;;;;;;5133429;27;20064;-54
2021/04/16 07:49:31;;;;;;;3.17;1.80;;;;;;;;;;5132976;27;20426;-47
2021/04/16 07:51:57;;;;;;;1.97;1.70;;;;;;;;;;5129534;27;20047;-54
2021/04/16 07:54:30;;;;;;;2.27;2.03;;;;;;;;;;5131780;27;20076;-54
2021/04/16 07:57:12;;;;;;;3.77;2.17;;;;;;;;;;5124179;27;20077;-49
2021/04/16 07:59:58;;;;;;;6.40;4.13;;;;;;;;;;5129264;27;20030;-51
2021/04/16 08:02:34;;;;;;;4.65;3.38;;;;;;;;;;5127308;27;20030;-49
2021/04/16 08:05:11;;;;;;;6.23;3.17;;;;;;;;;;5125961;27;20038;-51
2021/04/16 08:07:36;;;;;;;4.13;2.70;;;;;;;;;;5130510;27;20031;-50
2021/04/16 08:10:12;;;;;;;3.53;2.10;;;;;;;;;;5126157;28;20412;-51
2021/04/16 08:12:37;;;;;;;3.33;2.40;;;;;;;;;;5115504;27;20020;-51
2021/04/16 08:15:14;;;;;;;3.30;2.80;;;;;;;;;;5117446;28;20494;-54
2021/04/16 08:17:40;;;;;;;3.37;2.30;;;;;;;;;;5123538;28;20023;-51
2021/04/16 08:20:23;;;;;;;3.57;2.67;;;;;;;;;;5132120;27;20023;-51
2021/04/16 08:22:48;;;;;;;4.17;2.57;;;;;;;;;;5129944;27;20011;-53
2021/04/16 08:25:16;;;;;;;3.50;2.40;;;;;;;;;;5125376;28;20095;-51
2021/04/16 08:27:51;;;;;;;3.77;2.70;;;;;;;;;;5130697;28;20016;-50
2021/04/16 08:30:32;;;;;;;3.33;1.73;;;;;;;;;;5119602;27;20462;-50
2021/04/16 08:33:03;;;;;;;3.03;2.13;;;;;;;;;;5127034;27;20023;-50
2021/04/16 08:35:31;;;;;;;1.47;1.37;;;;;;;;;;5128858;27;20051;-53
2021/04/16 08:38:02;;;;;;;3.83;2.40;;;;;;;;;;5112251;28;20494;-49
2021/04/16 08:40:29;;;;;;;4.50;3.10;;;;;;;;;;5120323;28;20031;-53
2021/04/16 08:42:55;;;;;;;5.60;3.00;;;;;;;;;;5129526;27;20478;-50
2021/04/16 08:45:23;;;;;;;5.63;3.90;;;;;;;;;;5132437;27;20339;-51
2021/04/16 08:47:52;;;;;;;6.43;2.90;;;;;;;;;;5134137;27;20391;-49
2021/04/16 08:50:19;;;;;;;4.47;2.43;;;;;;;;;;5131973;27;20019;-51
2021/04/16 08:52:46;;;;;;;6.10;3.77;;;;;;;;;;5118778;27;20453;-51
2021/04/16 08:55:14;;;;;;;4.60;2.90;;;;;;;;;;5130742;27;20019;-51
2021/04/16 08:57:49;;;;;;;4.43;3.13;;;;;;;;;;5130710;27;20023;-51
2021/04/16 09:00:15;;;;;;;;;;;;;;;;;;5132809;27;20046;-52
2021/04/16 09:02:43;;;;;;;3.63;2.57;;;;;;;;;;5121512;27;19954;-49
2021/04/16 09:05:12;;;;;;;4.80;2.70;;;;;;;;;;5124172;28;20159;-50
2021/04/16 09:07:42;;;;;;;4.03;2.60;;;;;;;;;;5125916;27;20110;-49
2021/04/16 09:10:27;;;;;;;3.20;2.20;;;;;;;;;;5133888;27;20154;-51
2021/04/16 09:12:54;;;;;;;3.28;1.55;;;;;;;;;;5133311;27;20026;-50
2021/04/16 09:15:19;;;;;;;4.17;2.00;;;;;;;;;;5133335;27;20042;-51
2021/04/16 09:17:50;;;;;;;1.33;1.23;;;;;;;;;;5136294;27;20539;-52
2021/04/16 09:20:15;;;;;;;1.37;0.83;;;;;;;;;;5129199;27;20035;-49
2021/04/16 09:22:42;;;;;;;2.03;1.30;;;;;;;;;;5125846;27;20112;-53
2021/04/16 09:25:27;;;;;;;1.93;1.63;;;;;;;;;;5131140;27;20800;-53
2021/04/16 09:27:53;;;;;;;3.15;1.65;;;;;;;;;;5119307;27;20019;-53
2021/04/16 09:30:20;;;;;;;2.40;1.20;;;;;;;;;;5131228;27;20359;-51
2021/04/16 09:32:52;;;;;;;2.37;2.03;;;;;;;;;;5124058;27;20096;-50
2021/04/16 09:35:17;;;;;;;2.73;2.00;;;;;;;;;;5117293;27;20026;-48
2021/04/16 09:37:44;;;;;;;2.43;1.50;;;;;;;;;;5115501;27;20020;-53
2021/04/16 09:40:12;;;;;;;2.27;1.40;;;;;;;;;;5135368;27;20135;-52
2021/04/16 09:42:49;;;;;;;1.40;1.30;;;;;;;;;;5131732;27;20011;-53
2021/04/16 09:45:29;;;;;;;1.80;1.50;;;;;;;;;;5136131;27;20019;-51
2021/04/16 09:47:55;;;;;;;1.67;1.57;;;;;;;;;;5135377;27;20027;-51
2021/04/16 09:50:26;;;;;;;1.70;1.60;;;;;;;;;;5126801;27;20015;-53
2021/04/16 09:53:18;;;;;;;1.40;1.30;;;;;;;;;;5126580;27;20084;-54
2021/04/16 09:56:08;;;;;;;2.53;1.47;;;;;;;;;;5130912;27;20111;-50
2021/04/16 09:58:39;;;;;;;1.73;1.63;;;;;;;;;;5134848;27;20466;-51
2021/04/16 10:01:12;;;;;;;1.37;1.27;;;;;;;;;;5126746;27;20027;-50
2021/04/16 10:03:56;;;;;;;2.43;1.47;;;;;;;;;;5120052;27;20094;-51
2021/04/16 10:06:21;;;;;;;3.20;1.60;;;;;;;;;;5125992;27;20106;-48
2021/04/16 10:09:00;;;;;;;2.10;1.57;;;;;;;;;;5129519;27;20117;-49
2021/04/16 10:11:25;;;;;;;2.83;1.50;;;;;;;;;;5121932;27;20344;-48
2021/04/16 10:13:50;;;;;;;2.23;1.60;;;;;;;;;;5128158;27;20050;-52
2021/04/16 10:16:25;;;;;;;1.93;1.50;;;;;;;;;;5134425;27;20027;-49
2021/04/16 10:18:51;;;;;;;1.73;1.50;;;;;;;;;;5130964;27;20470;-50
2021/04/16 10:21:17;;;;;;;2.53;1.80;;;;;;;;;;5131791;27;20172;-52
2021/04/16 10:23:44;;;;;;;3.00;2.10;;;;;;;;;;5125663;27;20493;-49
2021/04/16 12:38:07;;;;;;;5.05;2.13;;;;;;;;;;5133337;28;20097;-52
2021/04/16 12:40:32;;;;;;;4.18;2.35;;;;;;;;;;5132840;27;20038;-52
2021/04/16 12:42:58;;;;;;;4.53;2.17;;;;;;;;;;5133615;27;20490;-53
2021/04/16 12:45:24;;;;;;;3.15;2.38;;;;;;;;;;5119071;27;20087;-48
2021/04/16 12:47:57;;;;;;;4.93;3.22;;;;;;;;;;5137190;27;20525;-54
2021/04/16 12:50:23;;;;;;;5.38;2.83;;;;;;;;;;5116254;28;20428;-49
2021/04/16 12:52:48;;;;;;;3.95;2.10;;;;;;;;;;5113129;28;20059;-53
2021/04/16 12:55:14;;;;;;;4.28;2.65;;;;;;;;;;5132518;27;20011;-49
2021/04/16 12:57:43;;;;;;;3.60;2.20;;;;;;;;;;5137073;27;20027;-51
2021/04/16 13:00:09;;;;;;;8.30;3.03;;;;;;;;;;5136513;27;20022;-52
2021/04/16 13:02:35;;;;;;;4.40;2.25;;;;;;;;;;5133380;27;20359;-53
2021/04/16 13:05:02;;;;;;;3.53;2.75;;;;;;;;;;5135372;27;20073;-52
2021/04/16 13:07:27;;;;;;;4.95;2.38;;;;;;;;;;5132571;27;20023;-51
2021/04/16 13:09:53;;;;;;;5.22;3.10;;;;;;;;;;5136502;27;20060;-50
2021/04/16 13:12:19;;;;;;;6.93;4.50;;;;;;;;;;5133540;27;20012;-52
2021/04/16 13:14:44;;;;;;;4.10;3.70;;;;;;;;;;5136904;27;20470;-54
2021/04/16 13:17:12;;;;;;;3.65;1.63;;;;;;;;;;5136627;27;20043;-52
2021/04/16 13:19:37;;;;;;;4.68;2.03;;;;;;;;;;5136420;27;20016;-54
2021/04/16 13:22:05;;;;;;;4.25;2.00;;;;;;;;;;5132478;27;20022;-52
2021/04/16 13:24:31;;;;;;;4.90;2.22;;;;;;;;;;5115857;28;20099;-50
2021/04/16 13:26:56;;;;;;;2.90;1.90;;;;;;;;;;5113936;28;20363;-52
2021/04/16 13:29:21;;;;;;;2.63;2.20;;;;;;;;;;5115370;28;20379;-48
2021/04/16 13:31:47;;;;;;;6.68;2.70;;;;;;;;;;5121062;27;20486;-53
2021/04/16 13:34:12;;;;;;;6.57;2.75;;;;;;;;;;5136109;27;20015;-54
2021/04/16 13:36:38;;;;;;;3.08;2.70;;;;;;;;;;5136327;27;20020;-50
2021/04/16 13:39:04;;;;;;;4.97;2.88;;;;;;;;;;5135956;27;20486;-53
2021/04/16 13:41:29;;;;;;;4.38;3.15;;;;;;;;;;5132398;27;20111;-50
2021/04/16 13:43:54;;;;;;;4.10;3.20;;;;;;;;;;5136150;27;20469;-51
2021/04/16 13:46:27;;;;;;;4.25;3.22;;;;;;;;;;5135965;27;20474;-48
2021/04/16 13:48:53;;;;;;;5.47;3.17;;;;;;;;;;5135745;27;20023;-52
2021/04/16 13:51:21;;;;;;;6.15;3.28;;;;;;;;;;5132354;27;20298;-52
2021/04/16 13:53:46;;;;;;;2.90;2.00;;;;;;;;;;5134653;27;20106;-53
2021/04/16 13:56:11;;;;;;;4.80;3.05;;;;;;;;;;5117861;27;20106;-51
2021/04/16 13:58:37;;;;;;;4.47;3.00;;;;;;;;;;5115068;28;20034;-53
2021/04/16 14:01:02;;;;;;;4.32;2.88;;;;;;;;;;5113084;28;20023;-50
2021/04/16 14:03:28;;;;;;;4.13;3.17;;;;;;;;;;5114223;28;20080;-49
2021/04/16 14:05:54;;;;;;;5.20;4.38;;;;;;;;;;5115009;28;20110;-51
2021/04/16 14:08:22;;;;;;;8.57;4.88;;;;;;;;;;5114728;28;20023;-51
2021/04/16 14:10:47;;;;;;;7.53;5.47;;;;;;;;;;5114335;28;20020;-52
2021/04/16 14:13:12;;;;;;;7.97;5.18;;;;;;;;;;5112307;28;20107;-51
2021/04/16 14:15:38;;;;;;;6.85;6.18;;;;;;;;;;5114969;28;20019;-52
2021/04/16 14:18:03;;;;;;;8.85;6.30;;;;;;;;;;5114790;28;20459;-51
2021/04/16 14:20:38;;;;;;;9.27;6.78;;;;;;;;;;5114450;28;20020;-51
2021/04/16 14:23:04;;;;;;;9.05;7.82;;;;;;;;;;5111533;28;20016;-51
2021/04/16 14:25:35;;;;;;;8.55;6.75;;;;;;;;;;5114588;28;20020;-53
2021/04/16 14:28:01;;;;;;;9.07;7.32;;;;;;;;;;5114492;27;20023;-50
2021/04/16 14:30:28;;;;;;;9.43;8.38;;;;;;;;;;5114565;28;20012;-49
2021/04/16 14:32:54;;;;;;;9.57;8.57;;;;;;;;;;5111471;28;20470;-53
2021/04/16 14:35:21;;;;;;;12.73;10.50;;;;;;;;;;5114612;28;20035;-49
2021/04/16 14:37:46;;;;;;;5.05;4.55;;;;;;;;;;5114325;27;20089;-50
2021/04/16 14:40:13;;;;;;;14.50;9.73;;;;;;;;;;5113754;28;20474;-51
2021/04/16 14:42:38;;;;;;;11.98;9.48;;;;;;;;;;5112445;27;20019;-51
2021/04/16 14:45:06;;;;;;;11.05;9.68;;;;;;;;;;5134767;27;20076;-49
2021/04/16 14:47:31;;;;;;;11.35;10.10;;;;;;;;;;5133522;27;20403;-50
2021/04/16 14:49:57;;;;;;;12.55;10.85;;;;;;;;;;5134588;27;20068;-53
2021/04/16 14:52:23;;;;;;;9.85;8.07;;;;;;;;;;5131511;27;20577;-54
2021/04/16 14:54:50;;;;;;;11.43;10.27;;;;;;;;;;5128960;27;20019;-52
2021/04/16 14:57:21;;;;;;;11.45;10.30;;;;;;;;;;5114108;28;20382;-51
2021/04/16 14:59:46;;;;;;;13.93;12.57;;;;;;;;;;5113770;27;20023;-52
2021/04/16 15:02:12;;;;;;;12.45;11.15;;;;;;;;;;5110905;28;20038;-52
2021/04/16 15:04:37;;;;;;;12.02;10.82;;;;;;;;;;5113587;28;20019;-53
2021/04/16 15:07:04;;;;;;;11.77;10.57;;;;;;;;;;5120298;27;20053;-53
2021/04/16 15:09:41;;;;;;;10.68;9.57;;;;;;;;;;5134090;27;20015;-48
2021/04/16 15:12:06;;;;;;;12.80;11.27;;;;;;;;;;5130930;27;20011;-52
2021/04/16 15:14:32;;;;;;;11.63;10.32;;;;;;;;;;5134368;27;20022;-51
2021/04/16 15:16:57;;;;;;;10.77;9.60;;;;;;;;;;5134170;27;20015;-54
2021/04/16 15:19:33;;;;;;;12.65;10.88;;;;;;;;;;5133678;27;20083;-52
2021/04/16 15:22:00;;;;;;;9.75;6.38;;;;;;;;;;5130503;27;20027;-52
2021/04/16 15:24:26;;;;;;;8.30;7.15;;;;;;;;;;5133056;27;20029;-52
2021/04/16 15:26:52;;;;;;;7.68;5.97;;;;;;;;;;5133226;27;20102;-55
2021/04/16 15:29:37;;;;;;;8.93;7.20;;;;;;;;;;5133545;27;20446;-54
2021/04/16 15:32:03;;;;;;;10.57;7.53;;;;;;;;;;5130103;27;20094;-54
2021/04/16 15:48:04;;;;;;;9.30;7.95;;;;;;;;;;5113608;27;20377;-54
2021/04/16 15:50:32;;;;;;;10.68;8.25;;;;;;;;;;5133248;27;20015;-53
2021/04/16 15:52:58;;;;;;;12.63;8.52;;;;;;;;;;5130273;27;20529;-53
2021/04/16 15:55:23;;;;;;;9.93;8.73;;;;;;;;;;5122801;27;20019;-53
2021/04/16 15:57:48;;;;;;;7.45;6.75;;;;;;;;;;5112903;28;20506;-52
2021/04/16 16:00:16;;;;;;;9.88;8.55;;;;;;;;;;5112550;28;20360;-51
2021/04/16 16:02:41;;;;;;;9.48;7.82;;;;;;;;;;5109967;28;20011;-54
2021/04/16 16:05:06;;;;;;;9.93;7.32;;;;;;;;;;5112884;28;20019;-52
2021/04/16 16:07:32;;;;;;;10.27;7.20;;;;;;;;;;5112844;28;20016;-52
2021/04/16 16:09:57;;;;;;;8.23;5.32;;;;;;;;;;5112603;28;20019;-49
2021/04/16 16:12:23;;;;;;;6.72;5.28;;;;;;;;;;5109590;28;20016;-52
2021/04/16 16:14:54;;;;;;;8.27;5.07;;;;;;;;;;5112505;28;20019;-54
2021/04/16 16:17:24;;;;;;;7.30;4.63;;;;;;;;;;5111883;28;20020;-52
2021/04/16 16:19:49;;;;;;;4.75;2.90;;;;;;;;;;5118883;28;20011;-52
2021/04/16 16:22:15;;;;;;;3.80;2.25;;;;;;;;;;5130164;27;20102;-52
2021/04/16 16:24:40;;;;;;;3.83;2.10;;;;;;;;;;5133610;28;20106;-54
2021/04/16 16:27:08;;;;;;;4.32;1.67;;;;;;;;;;5132749;27;20042;-51
2021/04/16 16:29:35;;;;;;;3.17;2.03;;;;;;;;;;5132866;27;20445;-53
2021/04/16 16:32:07;;;;;;;3.08;0.90;;;;;;;;;;5121416;27;20093;-54
2021/04/16 16:34:32;;;;;;;3.70;1.52;;;;;;;;;;5112798;28;20024;-51
2021/04/16 16:36:58;;;;;;;2.17;1.25;;;;;;;;;;5112106;28;20008;-49
2021/04/16 16:39:23;;;;;;;2.33;1.60;;;;;;;;;;5112651;28;20466;-52
2021/04/16 16:41:49;;;;;;;5.00;1.23;;;;;;;;;;5109176;28;20024;-55
2021/04/16 16:44:43;;;;;;;4.35;1.95;;;;;;;;;;5113201;28;20019;-54
2021/04/16 16:47:09;;;;;;;2.42;1.10;;;;;;;;;;5098698;28;20096;-51
2021/04/16 16:49:34;;;;;;;3.13;1.70;;;;;;;;;;5126227;28;20059;-52
2021/04/16 16:52:00;;;;;;;4.65;1.10;;;;;;;;;;5129331;28;20074;-53
2021/04/16 16:54:25;;;;;;;1.42;1.30;;;;;;;;;;5131651;27;20019;-53
2021/04/16 16:56:50;;;;;;;4.43;1.73;;;;;;;;;;5112179;28;20020;-52
2021/04/16 16:59:20;;;;;;;1.30;0.85;;;;;;;;;;5112681;28;20027;-52
2021/04/16 17:01:45;;;;;;;2.50;1.73;;;;;;;;;;5109363;28;20457;-53
2021/04/16 17:04:11;;;;;;;4.85;1.88;;;;;;;;;;5112329;28;20024;-51
2021/04/16 17:06:36;;;;;;;3.60;2.30;;;;;;;;;;5112311;28;20027;-47
2021/04/16 17:09:03;;;;;;;3.90;2.60;;;;;;;;;;5115439;28;20016;-52
2021/04/16 17:11:30;;;;;;;6.70;3.78;;;;;;;;;;5109066;28;20153;-51